Terminal Aerodrome Forecast
Issued by NWS

Home | Current Version | Previous Version | Text Only | Print | Product List | Glossary On
Versions: 1 2 3 4 5 6 7 8 9 10 11 12 13 14 15 16
000
FTUS43 KOAX 060713 AAA
TAFCDR
TAF AMD
KCDR 060713Z 0607/0706 02010G20KT 3SM BR BKN007 OVC015
      TEMPO 0607/0610 1SM -SHRA BR OVC005
     FM061000 35010KT 1SM -DZ BR OVC005
     FM061500 02010KT P6SM BKN035
     FM061900 04010KT 4SM -SHRA BKN035
     FM070100 09007KT P6SM BKN045=

USA.gov is the U.S. government's official web portal to all federal, state and local government web resources and services.